sensor_id;sensor_type;location;lat;lon;timestamp;pressure;altitude;pressure_sealevel;temperature;humidity
65546;BME280;52177;55.968;37.498;2023-02-28T00:00:27;100192.34;;;-9.06;76.92
65546;BME280;52177;55.968;37.498;2023-02-28T00:00:57;100195.81;;;-9.06;76.92
65546;BME280;52177;55.968;37.498;2023-02-28T00:01:27;100191.47;;;-9.05;76.90
65546;BME280;52177;55.968;37.498;2023-02-28T00:01:57;100188.84;;;-9.04;76.95
65546;BME280;52177;55.968;37.498;2023-02-28T00:02:28;100195.81;;;-9.06;76.81
65546;BME280;52177;55.968;37.498;2023-02-28T00:02:58;100192.41;;;-9.08;76.90
65546;BME280;52177;55.968;37.498;2023-02-28T00:03:28;100188.97;;;-9.08;76.97
65546;BME280;52177;55.968;37.498;2023-02-28T00:03:59;100188.84;;;-9.04;76.79
65546;BME280;52177;55.968;37.498;2023-02-28T00:04:29;100177.72;;;-9.06;76.76
65546;BME280;52177;55.968;37.498;2023-02-28T00:04:59;100180.34;;;-9.07;76.89
65546;BME280;52177;55.968;37.498;2023-02-28T00:05:33;100181.22;;;-9.08;76.84
65546;BME280;52177;55.968;37.498;2023-02-28T00:06:04;100176.06;;;-9.08;76.92
65546;BME280;52177;55.968;37.498;2023-02-28T00:06:34;100182.09;;;-9.08;76.83
65546;BME280;52177;55.968;37.498;2023-02-28T00:07:05;100181.19;;;-9.07;76.97
65546;BME280;52177;55.968;37.498;2023-02-28T00:07:35;100178.63;;;-9.08;77.03
65546;BME280;52177;55.968;37.498;2023-02-28T00:08:06;100176.13;;;-9.10;77.17
65546;BME280;52177;55.968;37.498;2023-02-28T00:08:37;100178.69;;;-9.10;77.29
65546;BME280;52177;55.968;37.498;2023-02-28T00:09:07;100178.72;;;-9.11;77.41
65546;BME280;52177;55.968;37.498;2023-02-28T00:09:38;100177.88;;;-9.12;77.42
65546;BME280;52177;55.968;37.498;2023-02-28T00:10:11;100181.34;;;-9.13;77.33
65546;BME280;52177;55.968;37.498;2023-02-28T00:10:42;100183.06;;;-9.12;77.28
65546;BME280;52177;55.968;37.498;2023-02-28T00:11:13;100184.72;;;-9.11;77.30
65546;BME280;52177;55.968;37.498;2023-02-28T00:11:44;100188.19;;;-9.10;77.14
65546;BME280;52177;55.968;37.498;2023-02-28T00:12:14;100188.19;;;-9.10;77.29
65546;BME280;52177;55.968;37.498;2023-02-28T00:12:44;100183.88;;;-9.10;77.26
65546;BME280;52177;55.968;37.498;2023-02-28T00:13:14;100183.06;;;-9.12;77.19
65546;BME280;52177;55.968;37.498;2023-02-28T00:13:45;100188.19;;;-9.10;77.22
65546;BME280;52177;55.968;37.498;2023-02-28T00:14:19;100185.59;;;-9.10;77.22
65546;BME280;52177;55.968;37.498;2023-02-28T00:14:49;100183.88;;;-9.10;77.08
65546;BME280;52177;55.968;37.498;2023-02-28T00:15:19;100185.59;;;-9.10;76.99
65546;BME280;52177;55.968;37.498;2023-02-28T00:15:58;100181.31;;;-9.11;77.04
65546;BME280;52177;55.968;37.498;2023-02-28T00:16:28;100187.41;;;-9.14;77.25
65546;BME280;52177;55.968;37.498;2023-02-28T00:16:58;100186.56;;;-9.15;77.30
65546;BME280;52177;55.968;37.498;2023-02-28T00:17:28;100181.34;;;-9.13;77.11
65546;BME280;52177;55.968;37.498;2023-02-28T00:17:59;100179.66;;;-9.14;77.23
65546;BME280;52177;55.968;37.498;2023-02-28T00:18:29;100172.75;;;-9.14;77.24
65546;BME280;52177;55.968;37.498;2023-02-28T00:18:59;100177.03;;;-9.13;77.16
65546;BME280;52177;55.968;37.498;2023-02-28T00:19:30;100170.97;;;-9.11;77.20
65546;BME280;52177;55.968;37.498;2023-02-28T00:20:00;100177.88;;;-9.12;77.01
65546;BME280;52177;55.968;37.498;2023-02-28T00:20:41;100169.34;;;-9.16;77.32
65546;BME280;52177;55.968;37.498;2023-02-28T00:21:11;100180.56;;;-9.15;77.24
65546;BME280;52177;55.968;37.498;2023-02-28T00:21:42;100168.53;;;-9.16;77.33
65546;BME280;52177;55.968;37.498;2023-02-28T00:22:12;100180.59;;;-9.17;77.29
65546;BME280;52177;55.968;37.498;2023-02-28T00:22:47;100178.84;;;-9.16;77.21
65546;BME280;52177;55.968;37.498;2023-02-28T00:23:17;100173.81;;;-9.21;77.24
65546;BME280;52177;55.968;37.498;2023-02-28T00:23:47;100174.63;;;-9.20;77.47
65546;BME280;52177;55.968;37.498;2023-02-28T00:24:18;100174.63;;;-9.20;77.39
65546;BME280;52177;55.968;37.498;2023-02-28T00:24:48;100176.38;;;-9.21;77.46
65546;BME280;52177;55.968;37.498;2023-02-28T00:25:20;100169.56;;;-9.23;77.48
65546;BME280;52177;55.968;37.498;2023-02-28T00:25:51;100177.31;;;-9.23;77.21
65546;BME280;52177;55.968;37.498;2023-02-28T00:26:21;100179.09;;;-9.25;77.32
65546;BME280;52177;55.968;37.498;2023-02-28T00:26:51;100174.00;;;-9.28;77.56
65546;BME280;52177;55.968;37.498;2023-02-28T00:27:22;100180.91;;;-9.29;77.58
65546;BME280;52177;55.968;37.498;2023-02-28T00:27:52;100175.69;;;-9.27;77.45
65546;BME280;52177;55.968;37.498;2023-02-28T00:28:23;100175.69;;;-9.27;77.53
65546;BME280;52177;55.968;37.498;2023-02-28T00:28:53;100173.09;;;-9.26;77.31
65546;BME280;52177;55.968;37.498;2023-02-28T00:29:24;100177.44;;;-9.28;77.38
65546;BME280;52177;55.968;37.498;2023-02-28T00:29:54;100174.81;;;-9.26;77.43
65546;BME280;52177;55.968;37.498;2023-02-28T00:30:24;100170.50;;;-9.26;77.47
65546;BME280;52177;55.968;37.498;2023-02-28T00:30:54;100169.59;;;-9.25;77.33
65546;BME280;52177;55.968;37.498;2023-02-28T00:31:25;100170.50;;;-9.26;77.35
65546;BME280;52177;55.968;37.498;2023-02-28T00:31:55;100173.09;;;-9.26;77.27
65546;BME280;52177;55.968;37.498;2023-02-28T00:32:25;100171.34;;;-9.25;77.32
65546;BME280;52177;55.968;37.498;2023-02-28T00:32:55;100167.91;;;-9.26;77.34
65546;BME280;52177;55.968;37.498;2023-02-28T00:33:26;100168.75;;;-9.25;77.19
65546;BME280;52177;55.968;37.498;2023-02-28T00:33:56;100173.09;;;-9.26;77.21
65546;BME280;52177;55.968;37.498;2023-02-28T00:34:26;100163.59;;;-9.25;77.18
65546;BME280;52177;55.968;37.498;2023-02-28T00:34:57;100163.59;;;-9.25;77.24
65546;BME280;52177;55.968;37.498;2023-02-28T00:35:27;100165.38;;;-9.27;77.31
65546;BME280;52177;55.968;37.498;2023-02-28T00:36:01;100168.00;;;-9.29;77.37
65546;BME280;52177;55.968;37.498;2023-02-28T00:36:31;100158.56;;;-9.30;77.47
65546;BME280;52177;55.968;37.498;2023-02-28T00:37:01;100165.47;;;-9.30;77.40
65546;BME280;52177;55.968;37.498;2023-02-28T00:37:32;100164.66;;;-9.32;77.41
65546;BME280;52177;55.968;37.498;2023-02-28T00:38:02;100162.06;;;-9.32;77.50
65546;BME280;52177;55.968;37.498;2023-02-28T00:38:32;100159.47;;;-9.31;77.46
65546;BME280;52177;55.968;37.498;2023-02-28T00:39:02;100156.88;;;-9.31;77.43
65546;BME280;52177;55.968;37.498;2023-02-28T00:39:36;100150.88;;;-9.31;77.48
65546;BME280;52177;55.968;37.498;2023-02-28T00:40:07;100152.63;;;-9.33;77.65
65546;BME280;52177;55.968;37.498;2023-02-28T00:40:38;100156.06;;;-9.33;77.68
65546;BME280;52177;55.968;37.498;2023-02-28T00:41:08;100148.41;;;-9.36;77.91
65546;BME280;52177;55.968;37.498;2023-02-28T00:41:39;100151.00;;;-9.36;77.91
65546;BME280;52177;55.968;37.498;2023-02-28T00:42:09;100151.84;;;-9.37;77.84
65546;BME280;52177;55.968;37.498;2023-02-28T00:42:39;100151.00;;;-9.38;77.97
65546;BME280;52177;55.968;37.498;2023-02-28T00:43:10;100144.94;;;-9.37;77.93
65546;BME280;52177;55.968;37.498;2023-02-28T00:43:40;100148.41;;;-9.36;77.93
65546;BME280;52177;55.968;37.498;2023-02-28T00:44:10;100143.25;;;-9.36;78.13
65546;BME280;52177;55.968;37.498;2023-02-28T00:44:40;100149.28;;;-9.37;78.09
65546;BME280;52177;55.968;37.498;2023-02-28T00:45:11;100149.28;;;-9.37;78.05
65546;BME280;52177;55.968;37.498;2023-02-28T00:45:41;100142.44;;;-9.38;78.07
65546;BME280;52177;55.968;37.498;2023-02-28T00:46:11;100143.28;;;-9.38;78.12
65546;BME280;52177;55.968;37.498;2023-02-28T00:46:41;100144.94;;;-9.37;78.04
65546;BME280;52177;55.968;37.498;2023-02-28T00:47:12;100143.25;;;-9.36;78.00
65546;BME280;52177;55.968;37.498;2023-02-28T00:47:42;100146.66;;;-9.36;77.98
65546;BME280;52177;55.968;37.498;2023-02-28T00:48:12;100141.50;;;-9.36;77.95
65546;BME280;52177;55.968;37.498;2023-02-28T00:48:42;100133.78;;;-9.37;78.02
65546;BME280;52177;55.968;37.498;2023-02-28T00:49:13;100143.25;;;-9.36;78.03
65546;BME280;52177;55.968;37.498;2023-02-28T00:49:43;100135.50;;;-9.36;78.05
65546;BME280;52177;55.968;37.498;2023-02-28T00:50:13;100137.19;;;-9.35;78.01
65546;BME280;52177;55.968;37.498;2023-02-28T00:50:44;100132.84;;;-9.35;77.92
65546;BME280;52177;55.968;37.498;2023-02-28T00:51:14;100132.84;;;-9.35;77.84
65546;BME280;52177;55.968;37.498;2023-02-28T00:51:44;100136.31;;;-9.34;77.91
65546;BME280;52177;55.968;37.498;2023-02-28T00:52:14;100135.44;;;-9.35;77.92
65546;BME280;52177;55.968;37.498;2023-02-28T00:52:45;100124.28;;;-9.35;77.87
65546;BME280;52177;55.968;37.498;2023-02-28T00:53:15;100128.56;;;-9.34;77.79
65546;BME280;52177;55.968;37.498;2023-02-28T00:53:45;100127.75;;;-9.36;77.80
65546;BME280;52177;55.968;37.498;2023-02-28T00:54:16;100136.34;;;-9.36;77.77
65546;BME280;52177;55.968;37.498;2023-02-28T00:54:46;100130.38;;;-9.38;77.66
65546;BME280;52177;55.968;37.498;2023-02-28T00:55:16;100129.56;;;-9.40;77.70
65546;BME280;52177;55.968;37.498;2023-02-28T00:55:49;100127.00;;;-9.41;78.04
65546;BME280;52177;55.968;37.498;2023-02-28T00:56:19;100120.06;;;-9.39;77.94
65546;BME280;52177;55.968;37.498;2023-02-28T00:56:49;100126.94;;;-9.38;78.04
65546;BME280;52177;55.968;37.498;2023-02-28T00:57:20;100124.31;;;-9.37;77.89
65546;BME280;52177;55.968;37.498;2023-02-28T00:57:50;100125.13;;;-9.35;77.93
65546;BME280;52177;55.968;37.498;2023-02-28T00:58:20;100117.38;;;-9.35;77.89
65546;BME280;52177;55.968;37.498;2023-02-28T00:58:51;100112.16;;;-9.31;77.91
65546;BME280;52177;55.968;37.498;2023-02-28T00:59:21;100112.91;;;-9.28;77.67
65546;BME280;52177;55.968;37.498;2023-02-28T00:59:51;100117.22;;;-9.28;77.51
65546;BME280;52177;55.968;37.498;2023-02-28T01:00:24;100122.41;;;-9.30;77.59
65546;BME280;52177;55.968;37.498;2023-02-28T01:00:54;100108.78;;;-9.35;77.82
65546;BME280;52177;55.968;37.498;2023-02-28T01:01:24;100113.09;;;-9.34;77.86
65546;BME280;52177;55.968;37.498;2023-02-28T01:01:55;100113.91;;;-9.33;77.98
65546;BME280;52177;55.968;37.498;2023-02-28T01:02:25;100112.94;;;-9.29;77.58
65546;BME280;52177;55.968;37.498;2023-02-28T01:02:55;100110.34;;;-9.29;77.38
65546;BME280;52177;55.968;37.498;2023-02-28T01:03:25;100108.66;;;-9.30;77.38
65546;BME280;52177;55.968;37.498;2023-02-28T01:03:56;100109.56;;;-9.31;77.64
65546;BME280;52177;55.968;37.498;2023-02-28T01:04:26;100109.59;;;-9.33;77.55
65546;BME280;52177;55.968;37.498;2023-02-28T01:04:56;100104.44;;;-9.33;77.51
65546;BME280;52177;55.968;37.498;2023-02-28T01:05:26;100099.25;;;-9.31;77.56
65546;BME280;52177;55.968;37.498;2023-02-28T01:05:57;100106.97;;;-9.31;77.42
65546;BME280;52177;55.968;37.498;2023-02-28T01:06:27;100102.66;;;-9.31;77.47
65546;BME280;52177;55.968;37.498;2023-02-28T01:06:57;100100.94;;;-9.32;77.43
65546;BME280;52177;55.968;37.498;2023-02-28T01:07:28;100096.66;;;-9.31;77.33
65546;BME280;52177;55.968;37.498;2023-02-28T01:07:58;100100.09;;;-9.32;77.27
65546;BME280;52177;55.968;37.498;2023-02-28T01:08:28;100097.59;;;-9.34;77.37
65546;BME280;52177;55.968;37.498;2023-02-28T01:08:59;100095.84;;;-9.33;77.42
65546;BME280;52177;55.968;37.498;2023-02-28T01:09:29;100089.88;;;-9.36;77.49
65546;BME280;52177;55.968;37.498;2023-02-28T01:09:59;100092.47;;;-9.36;77.55
65546;BME280;52177;55.968;37.498;2023-02-28T01:10:29;100095.03;;;-9.36;77.47
65546;BME280;52177;55.968;37.498;2023-02-28T01:11:07;100092.44;;;-9.34;77.51
65546;BME280;52177;55.968;37.498;2023-02-28T01:11:38;100085.53;;;-9.33;77.35
65546;BME280;52177;55.968;37.498;2023-02-28T01:12:10;100090.59;;;-9.30;77.21
65546;BME280;52177;55.968;37.498;2023-02-28T01:12:40;100091.44;;;-9.30;77.28
65546;BME280;52177;55.968;37.498;2023-02-28T01:13:11;100088.00;;;-9.30;77.21
65546;BME280;52177;55.968;37.498;2023-02-28T01:13:42;100083.78;;;-9.33;77.23
65546;BME280;52177;55.968;37.498;2023-02-28T01:14:16;100090.69;;;-9.33;77.34
65546;BME280;52177;55.968;37.498;2023-02-28T01:14:46;100089.84;;;-9.34;77.40
65546;BME280;52177;55.968;37.498;2023-02-28T01:15:17;100089.84;;;-9.34;77.41
65546;BME280;52177;55.968;37.498;2023-02-28T01:15:51;100082.13;;;-9.36;77.48
65546;BME280;52177;55.968;37.498;2023-02-28T01:16:21;100084.72;;;-9.36;77.49
65546;BME280;52177;55.968;37.498;2023-02-28T01:16:52;100081.31;;;-9.38;77.44
65546;BME280;52177;55.968;37.498;2023-02-28T01:17:22;100079.56;;;-9.36;77.45
65546;BME280;52177;55.968;37.498;2023-02-28T01:17:52;100072.69;;;-9.37;77.42
65546;BME280;52177;55.968;37.498;2023-02-28T01:18:22;100068.38;;;-9.36;77.45
65546;BME280;52177;55.968;37.498;2023-02-28T01:18:53;100068.38;;;-9.36;77.30
65546;BME280;52177;55.968;37.498;2023-02-28T01:19:23;100069.22;;;-9.36;77.33
65546;BME280;52177;55.968;37.498;2023-02-28T01:19:54;100062.34;;;-9.37;77.45
65546;BME280;52177;55.968;37.498;2023-02-28T01:20:25;100060.69;;;-9.38;77.54
65546;BME280;52177;55.968;37.498;2023-02-28T01:20:55;100059.00;;;-9.39;77.40
65546;BME280;52177;55.968;37.498;2023-02-28T01:21:25;100059.00;;;-9.39;77.34
65546;BME280;52177;55.968;37.498;2023-02-28T01:21:56;100065.00;;;-9.38;77.51
65546;BME280;52177;55.968;37.498;2023-02-28T01:22:26;100056.44;;;-9.40;77.62
65546;BME280;52177;55.968;37.498;2023-02-28T01:22:56;100056.44;;;-9.40;77.59
65546;BME280;52177;55.968;37.498;2023-02-28T01:23:26;100059.91;;;-9.41;77.59
65546;BME280;52177;55.968;37.498;2023-02-28T01:23:57;100054.72;;;-9.40;77.72
65546;BME280;52177;55.968;37.498;2023-02-28T01:24:28;100052.13;;;-9.40;77.60
65546;BME280;52177;55.968;37.498;2023-02-28T01:24:58;100055.59;;;-9.41;77.77
65546;BME280;52177;55.968;37.498;2023-02-28T01:25:28;100058.22;;;-9.42;77.94
65546;BME280;52177;55.968;37.498;2023-02-28T01:26:05;100054.81;;;-9.43;77.92
65546;BME280;52177;55.968;37.498;2023-02-28T01:26:35;100051.41;;;-9.45;78.02
65546;BME280;52177;55.968;37.498;2023-02-28T01:27:06;100053.97;;;-9.43;77.94
65546;BME280;52177;55.968;37.498;2023-02-28T01:27:36;100047.09;;;-9.44;77.81
65546;BME280;52177;55.968;37.498;2023-02-28T01:28:06;100053.97;;;-9.43;77.96
65546;BME280;52177;55.968;37.498;2023-02-28T01:28:36;100053.91;;;-9.42;77.93
65546;BME280;52177;55.968;37.498;2023-02-28T01:29:07;100051.28;;;-9.40;77.95
65546;BME280;52177;55.968;37.498;2023-02-28T01:29:37;100050.38;;;-9.39;77.85
65546;BME280;52177;55.968;37.498;2023-02-28T01:30:07;100048.72;;;-9.40;77.97
65546;BME280;52177;55.968;37.498;2023-02-28T01:30:38;100045.31;;;-9.42;78.02
65546;BME280;52177;55.968;37.498;2023-02-28T01:31:09;100043.63;;;-9.43;78.07
65546;BME280;52177;55.968;37.498;2023-02-28T01:31:39;100041.06;;;-9.43;78.16
65546;BME280;52177;55.968;37.498;2023-02-28T01:32:10;100041.97;;;-9.46;78.27
65546;BME280;52177;55.968;37.498;2023-02-28T01:32:40;100048.94;;;-9.48;78.29
65546;BME280;52177;55.968;37.498;2023-02-28T01:33:10;100047.19;;;-9.47;78.28
65546;BME280;52177;55.968;37.498;2023-02-28T01:33:40;100046.28;;;-9.46;78.31
65546;BME280;52177;55.968;37.498;2023-02-28T01:34:11;100045.44;;;-9.47;78.17
65546;BME280;52177;55.968;37.498;2023-02-28T01:34:42;100046.28;;;-9.46;78.19
65546;BME280;52177;55.968;37.498;2023-02-28T01:35:12;100046.28;;;-9.46;78.27
65546;BME280;52177;55.968;37.498;2023-02-28T01:35:42;100049.75;;;-9.47;78.45
65546;BME280;52177;55.968;37.498;2023-02-28T01:36:14;100042.06;;;-9.49;78.35
65546;BME280;52177;55.968;37.498;2023-02-28T01:36:45;100038.53;;;-9.46;78.23
65546;BME280;52177;55.968;37.498;2023-02-28T01:37:15;100046.28;;;-9.46;78.25
65546;BME280;52177;55.968;37.498;2023-02-28T01:37:46;100045.41;;;-9.45;78.18
65546;BME280;52177;55.968;37.498;2023-02-28T01:38:16;100038.50;;;-9.45;78.24
65546;BME280;52177;55.968;37.498;2023-02-28T01:38:47;100046.22;;;-9.43;78.09
65546;BME280;52177;55.968;37.498;2023-02-28T01:39:17;100037.59;;;-9.44;78.11
65546;BME280;52177;55.968;37.498;2023-02-28T01:39:47;100037.69;;;-9.47;78.22
65546;BME280;52177;55.968;37.498;2023-02-28T01:40:18;100039.25;;;-9.41;77.92
65546;BME280;52177;55.968;37.498;2023-02-28T01:40:48;100034.16;;;-9.43;77.92
65546;BME280;52177;55.968;37.498;2023-02-28T01:41:22;100035.84;;;-9.42;77.90
65546;BME280;52177;55.968;37.498;2023-02-28T01:41:53;100034.09;;;-9.41;77.88
65546;BME280;52177;55.968;37.498;2023-02-28T01:42:23;100039.31;;;-9.43;77.90
65546;BME280;52177;55.968;37.498;2023-02-28T01:42:54;100033.25;;;-9.42;77.88
65546;BME280;52177;55.968;37.498;2023-02-28T01:43:25;100034.97;;;-9.41;77.85
65546;BME280;52177;55.968;37.498;2023-02-28T01:44:04;100035.81;;;-9.40;77.73
65546;BME280;52177;55.968;37.498;2023-02-28T01:45:27;100034.06;;;-9.40;77.70
65546;BME280;52177;55.968;37.498;2023-02-28T01:45:58;100035.81;;;-9.40;77.72
65546;BME280;52177;55.968;37.498;2023-02-28T01:46:29;100032.38;;;-9.41;77.76
65546;BME280;52177;55.968;37.498;2023-02-28T01:47:00;100030.72;;;-9.43;77.99
65546;BME280;52177;55.968;37.498;2023-02-28T01:47:32;100033.34;;;-9.45;78.10
65546;BME280;52177;55.968;37.498;2023-02-28T01:48:03;100038.50;;;-9.45;78.00
65546;BME280;52177;55.968;37.498;2023-02-28T01:48:36;100027.28;;;-9.44;77.94
65546;BME280;52177;55.968;37.498;2023-02-28T01:49:12;100028.94;;;-9.41;78.24
65546;BME280;52177;55.968;37.498;2023-02-28T01:49:43;100028.16;;;-9.43;78.24
65546;BME280;52177;55.968;37.498;2023-02-28T01:50:15;100024.69;;;-9.44;78.09
65546;BME280;52177;55.968;37.498;2023-02-28T01:50:46;100026.44;;;-9.44;78.24
65546;BME280;52177;55.968;37.498;2023-02-28T01:51:35;100027.28;;;-9.44;78.35
65546;BME280;52177;55.968;37.498;2023-02-28T01:52:05;100024.69;;;-9.44;78.19
65546;BME280;52177;55.968;37.498;2023-02-28T01:52:36;100024.66;;;-9.42;78.27
65546;BME280;52177;55.968;37.498;2023-02-28T01:53:08;100026.41;;;-9.43;78.38
65546;BME280;52177;55.968;37.498;2023-02-28T01:53:45;100021.25;;;-9.43;78.39
65546;BME280;52177;55.968;37.498;2023-02-28T01:54:18;100026.44;;;-9.44;78.53
65546;BME280;52177;55.968;37.498;2023-02-28T01:54:50;100027.25;;;-9.42;78.41
65546;BME280;52177;55.968;37.498;2023-02-28T01:55:21;100024.63;;;-9.41;78.54
65546;BME280;52177;55.968;37.498;2023-02-28T01:55:52;100019.53;;;-9.44;78.61
65546;BME280;52177;55.968;37.498;2023-02-28T01:56:24;100019.59;;;-9.45;78.75
65546;BME280;52177;55.968;37.498;2023-02-28T01:57:01;100023.03;;;-9.45;78.83
65546;BME280;52177;55.968;37.498;2023-02-28T01:57:38;100017.88;;;-9.45;78.88
65546;BME280;52177;55.968;37.498;2023-02-28T01:58:10;100028.16;;;-9.43;78.80
65546;BME280;52177;55.968;37.498;2023-02-28T01:58:40;100023.03;;;-9.45;78.79
65546;BME280;52177;55.968;37.498;2023-02-28T01:59:12;100028.09;;;-9.42;78.75
65546;BME280;52177;55.968;37.498;2023-02-28T02:00:17;100023.84;;;-9.43;79.04
65546;BME280;52177;55.968;37.498;2023-02-28T02:00:50;100016.13;;;-9.44;78.94
65546;BME280;52177;55.968;37.498;2023-02-28T02:01:21;100023.00;;;-9.43;79.05
65546;BME280;52177;55.968;37.498;2023-02-28T02:01:51;100011.75;;;-9.42;78.96
65546;BME280;52177;55.968;37.498;2023-02-28T02:02:23;100013.44;;;-9.41;78.97
65546;BME280;52177;55.968;37.498;2023-02-28T02:02:55;100014.31;;;-9.41;78.90
65546;BME280;52177;55.968;37.498;2023-02-28T02:03:26;100006.50;;;-9.39;78.93
65546;BME280;52177;55.968;37.498;2023-02-28T02:03:57;100012.56;;;-9.40;78.94
65546;BME280;52177;55.968;37.498;2023-02-28T02:04:32;100010.88;;;-9.41;79.09
65546;BME280;52177;55.968;37.498;2023-02-28T02:05:10;100012.59;;;-9.42;78.98
65546;BME280;52177;55.968;37.498;2023-02-28T02:05:41;100009.16;;;-9.41;78.99
65546;BME280;52177;55.968;37.498;2023-02-28T02:06:11;100005.66;;;-9.40;78.96
65546;BME280;52177;55.968;37.498;2023-02-28T02:06:42;100000.50;;;-9.40;78.94
65546;BME280;52177;55.968;37.498;2023-02-28T02:07:13;100001.34;;;-9.39;78.91
65546;BME280;52177;55.968;37.498;2023-02-28T02:07:44;99999.56;;;-9.37;78.74
65546;BME280;52177;55.968;37.498;2023-02-28T02:08:17;100003.06;;;-9.38;78.67
65546;BME280;52177;55.968;37.498;2023-02-28T02:08:48;99997.91;;;-9.38;78.72
65546;BME280;52177;55.968;37.498;2023-02-28T02:09:18;100001.31;;;-9.38;78.68
65546;BME280;52177;55.968;37.498;2023-02-28T02:09:49;99991.81;;;-9.37;78.73
65546;BME280;52177;55.968;37.498;2023-02-28T02:10:42;99995.31;;;-9.38;78.68
65546;BME280;52177;55.968;37.498;2023-02-28T02:11:16;100003.06;;;-9.38;78.66
65546;BME280;52177;55.968;37.498;2023-02-28T02:11:47;99993.47;;;-9.35;78.59
65546;BME280;52177;55.968;37.498;2023-02-28T02:12:30;99989.25;;;-9.37;78.55
65546;BME280;52177;55.968;37.498;2023-02-28T02:14:16;99980.53;;;-9.33;78.30
65546;BME280;52177;55.968;37.498;2023-02-28T02:15:32;99978.84;;;-9.34;78.40
65546;BME280;52177;55.968;37.498;2023-02-28T02:16:52;99981.50;;;-9.37;78.23
65546;BME280;52177;55.968;37.498;2023-02-28T02:17:28;99971.25;;;-9.39;78.42
65546;BME280;52177;55.968;37.498;2023-02-28T02:18:04;99974.59;;;-9.37;78.50
65546;BME280;52177;55.968;37.498;2023-02-28T02:18:52;99981.47;;;-9.36;78.39
65546;BME280;52177;55.968;37.498;2023-02-28T02:23:02;99968.59;;;-9.37;78.12
65546;BME280;52177;55.968;37.498;2023-02-28T02:24:48;99960.84;;;-9.37;78.20
65546;BME280;52177;55.968;37.498;2023-02-28T02:26:52;99952.16;;;-9.35;78.06
65546;BME280;52177;55.968;37.498;2023-02-28T02:27:38;99962.50;;;-9.35;78.25
65546;BME280;52177;55.968;37.498;2023-02-28T02:28:46;99957.41;;;-9.36;78.27
65546;BME280;52177;55.968;37.498;2023-02-28T02:30:11;99949.69;;;-9.38;78.36
65546;BME280;52177;55.968;37.498;2023-02-28T02:32:46;99957.44;;;-9.38;78.20
65546;BME280;52177;55.968;37.498;2023-02-28T02:34:06;99953.94;;;-9.37;78.57
65546;BME280;52177;55.968;37.498;2023-02-28T02:35:38;99954.84;;;-9.38;78.70
65546;BME280;52177;55.968;37.498;2023-02-28T02:36:13;99948.88;;;-9.40;79.05
65546;BME280;52177;55.968;37.498;2023-02-28T02:36:51;99950.66;;;-9.42;79.10
65546;BME280;52177;55.968;37.498;2023-02-28T02:38:08;99949.78;;;-9.41;79.07
65546;BME280;52177;55.968;37.498;2023-02-28T02:40:20;99941.94;;;-9.38;79.07
65546;BME280;52177;55.968;37.498;2023-02-28T02:41:38;99943.59;;;-9.35;79.28
65546;BME280;52177;55.968;37.498;2023-02-28T02:41:45;99941.84;;;-9.35;78.91
65546;BME280;52177;55.968;37.498;2023-02-28T02:42:23;99941.00;;;-9.35;79.07
65546;BME280;52177;55.968;37.498;2023-02-28T02:43:34;99938.41;;;-9.33;78.96
65546;BME280;52177;55.968;37.498;2023-02-28T02:44:40;99933.22;;;-9.33;79.00
65546;BME280;52177;55.968;37.498;2023-02-28T02:45:19;99928.91;;;-9.33;79.00
65546;BME280;52177;55.968;37.498;2023-02-28T02:45:54;99934.03;;;-9.31;79.02
65546;BME280;52177;55.968;37.498;2023-02-28T02:46:35;99934.91;;;-9.32;79.08
65546;BME280;52177;55.968;37.498;2023-02-28T02:47:08;99937.50;;;-9.32;79.01
65546;BME280;52177;55.968;37.498;2023-02-28T02:47:40;99921.16;;;-9.33;79.00
65546;BME280;52177;55.968;37.498;2023-02-28T02:48:11;99927.22;;;-9.34;79.21
65546;BME280;52177;55.968;37.498;2023-02-28T02:48:43;99923.78;;;-9.35;79.15
65546;BME280;52177;55.968;37.498;2023-02-28T02:49:28;99925.53;;;-9.35;79.12
65546;BME280;52177;55.968;37.498;2023-02-28T02:50:02;99918.69;;;-9.36;79.12
65546;BME280;52177;55.968;37.498;2023-02-28T02:50:45;99928.13;;;-9.37;79.29
65546;BME280;52177;55.968;37.498;2023-02-28T02:51:16;99921.25;;;-9.36;79.09
65546;BME280;52177;55.968;37.498;2023-02-28T02:51:48;99918.69;;;-9.36;79.17
65546;BME280;52177;55.968;37.498;2023-02-28T02:52:20;99926.38;;;-9.35;79.14
65546;BME280;52177;55.968;37.498;2023-02-28T02:52:53;99918.59;;;-9.33;79.11
65546;BME280;52177;55.968;37.498;2023-02-28T02:53:40;99911.69;;;-9.32;78.94
65546;BME280;52177;55.968;37.498;2023-02-28T02:54:13;99915.06;;;-9.30;78.77
65546;BME280;52177;55.968;37.498;2023-02-28T02:54:45;99919.38;;;-9.31;78.83
65546;BME280;52177;55.968;37.498;2023-02-28T02:55:18;99915.06;;;-9.30;78.83
65546;BME280;52177;55.968;37.498;2023-02-28T02:55:49;99912.47;;;-9.30;78.82
65546;BME280;52177;55.968;37.498;2023-02-28T02:56:25;99913.31;;;-9.30;78.83
65546;BME280;52177;55.968;37.498;2023-02-28T02:56:57;99903.84;;;-9.29;78.94
65546;BME280;52177;55.968;37.498;2023-02-28T02:57:33;99913.28;;;-9.28;78.64
65546;BME280;52177;55.968;37.498;2023-02-28T02:58:05;99907.31;;;-9.30;78.76
65546;BME280;52177;55.968;37.498;2023-02-28T02:58:38;99909.00;;;-9.29;78.70
65546;BME280;52177;55.968;37.498;2023-02-28T02:59:13;99903.84;;;-9.29;78.63
65546;BME280;52177;55.968;37.498;2023-02-28T02:59:51;99902.97;;;-9.28;78.69
65546;BME280;52177;55.968;37.498;2023-02-28T03:00:25;99902.06;;;-9.27;78.57
65546;BME280;52177;55.968;37.498;2023-02-28T03:00:58;99909.78;;;-9.27;78.54
65546;BME280;52177;55.968;37.498;2023-02-28T03:01:30;99909.78;;;-9.27;78.74
65546;BME280;52177;55.968;37.498;2023-02-28T03:02:02;99905.53;;;-9.28;78.71
65546;BME280;52177;55.968;37.498;2023-02-28T03:02:34;99905.53;;;-9.28;78.69
65546;BME280;52177;55.968;37.498;2023-02-28T03:03:05;99902.97;;;-9.28;78.73
65546;BME280;52177;55.968;37.498;2023-02-28T03:03:37;99896.97;;;-9.29;78.64
65546;BME280;52177;55.968;37.498;2023-02-28T03:04:08;99896.97;;;-9.29;78.83
65546;BME280;52177;55.968;37.498;2023-02-28T03:04:40;99893.47;;;-9.28;78.73